Hof Plauen, Germany

6:53 PM CEST on September 01, 2015 (GMT +0200)
Fichtelgebirge | | Change Station
CLOSE
Current Station
Personal Weather Station
Location: Oberkotzau, BAYERN
Elevation: 1647 ft
Nearby Weather Stations

Elev 1647 ft 50.25 °N, 11.93 °E | Updated 4 seconds ago

Clear
Clear
67.6 °F
Feels Like 67.6 °F
N
0.0
Wind Variable Wind from ESE
Gusts 0.0 mph

Today
High -- | Low -- °F
--% Chance of Precip.
Yesterday
High -- | Low -- °F
Precip. -- in
6:26 AM 7:57 PM
Waning Gibbous, 88% visible
Pressure 29.86 in
Visibility -9999.0 miles
Clouds
Dew Point 63 °F
Humidity 86%
Rainfall 0.05 in
Snow Depth Not available.
UV 1.0 out of 12
Pollen Not available.
Air Quality Not available.
Flu Activity Not available.
METAR LKKV 011630Z 28006KT CAVOK 20/16 Q1011
Pressure 29.86 in
Visibility -9999.0 miles
Clouds
Dew Point 63 °F
Humidity 86%
Rainfall 0.05 in
Snow Depth Not available.
UV 1.0 out of 12
Pollen Not available.
Air Quality Not available.
Flu Activity Not available.
METAR LKKV 011630Z 28006KT CAVOK 20/16 Q1011

10-Day Weather Forecast

×

Almanac

Astronomy

Sep. 01, 2015 Rise Set
Actual Time
Civil Twilight
Nautical Twilight
Astronomical Twilight
Moon
Length of Visible Light
Length of Day
Tomorrow will be .
, % of the Moon is Illuminated

Today's Extremes

Country Highs Country Lows

Community

WunderPhotos

Upload Photos

1,851,555 photos uploaded!

WunderBlogs® & News

Nearby

Air Quality

  Air Quality AQ Index Pollutant
Not available.

Snow Depth

Station Depth Elevation

Earthquake Activity

City Distance Mag. Time & Date
Minimum magnitude displayed is 2.5.

Coastal Water Temperatures

Place Temperature

Stations

Nearby Weather Stations

Station Location Temp. Windchill Dew Point Humidity Wind Precip. Elev Updated Type